sensor_id;sensor_type;location;lat;lon;timestamp;temperature;humidity
43043;DHT22;28667;50.758;6.096;2023-07-29T04:59:31;17.40;99.90
43043;DHT22;28667;50.758;6.096;2023-07-29T05:01:56;17.30;99.90
43043;DHT22;28667;50.758;6.096;2023-07-29T05:04:23;17.30;99.90
43043;DHT22;28667;50.758;6.096;2023-07-29T05:06:48;17.30;99.90
43043;DHT22;28667;50.758;6.096;2023-07-29T05:09:14;17.30;99.90
43043;DHT22;28667;50.758;6.096;2023-07-29T05:11:41;17.40;99.90
43043;DHT22;28667;50.758;6.096;2023-07-29T05:14:07;17.40;99.90
43043;DHT22;28667;50.758;6.096;2023-07-29T05:16:35;17.30;99.90
43043;DHT22;28667;50.758;6.096;2023-07-29T05:19:01;17.40;99.90
43043;DHT22;28667;50.758;6.096;2023-07-29T05:21:27;17.40;99.90
43043;DHT22;28667;50.758;6.096;2023-07-29T05:23:52;17.50;99.90
43043;DHT22;28667;50.758;6.096;2023-07-29T05:26:18;17.60;99.90
43043;DHT22;28667;50.758;6.096;2023-07-29T05:28:44;17.50;99.90
43043;DHT22;28667;50.758;6.096;2023-07-29T05:31:10;17.50;99.90
43043;DHT22;28667;50.758;6.096;2023-07-29T05:33:35;17.50;99.90
43043;DHT22;28667;50.758;6.096;2023-07-29T05:36:01;17.50;99.90
43043;DHT22;28667;50.758;6.096;2023-07-29T05:38:27;17.50;99.90
43043;DHT22;28667;50.758;6.096;2023-07-29T05:40:53;17.50;99.90
43043;DHT22;28667;50.758;6.096;2023-07-29T05:43:18;17.60;99.90
43043;DHT22;28667;50.758;6.096;2023-07-29T05:45:44;17.60;99.90
43043;DHT22;28667;50.758;6.096;2023-07-29T05:48:11;17.60;99.90
43043;DHT22;28667;50.758;6.096;2023-07-29T05:50:36;17.70;99.90
43043;DHT22;28667;50.758;6.096;2023-07-29T05:53:02;17.70;99.90
43043;DHT22;28667;50.758;6.096;2023-07-29T05:55:28;17.80;99.90
43043;DHT22;28667;50.758;6.096;2023-07-29T05:57:53;17.80;99.90
43043;DHT22;28667;50.758;6.096;2023-07-29T06:00:20;17.80;99.90
43043;DHT22;28667;50.758;6.096;2023-07-29T06:02:46;17.80;99.90
43043;DHT22;28667;50.758;6.096;2023-07-29T06:05:16;17.80;99.90
43043;DHT22;28667;50.758;6.096;2023-07-29T06:10:13;18.00;99.90
43043;DHT22;28667;50.758;6.096;2023-07-29T06:12:39;18.10;99.90
43043;DHT22;28667;50.758;6.096;2023-07-29T06:15:05;18.10;99.90
43043;DHT22;28667;50.758;6.096;2023-07-29T06:17:31;18.20;99.90
43043;DHT22;28667;50.758;6.096;2023-07-29T06:19:56;18.30;99.90
43043;DHT22;28667;50.758;6.096;2023-07-29T06:22:23;18.30;99.90
43043;DHT22;28667;50.758;6.096;2023-07-29T06:24:48;18.30;99.90
43043;DHT22;28667;50.758;6.096;2023-07-29T06:27:14;18.40;99.90
43043;DHT22;28667;50.758;6.096;2023-07-29T06:29:40;18.40;99.90
43043;DHT22;28667;50.758;6.096;2023-07-29T06:32:05;18.40;99.90
43043;DHT22;28667;50.758;6.096;2023-07-29T06:34:31;18.40;99.90
43043;DHT22;28667;50.758;6.096;2023-07-29T06:36:57;18.40;99.90
43043;DHT22;28667;50.758;6.096;2023-07-29T06:39:23;18.40;99.90
43043;DHT22;28667;50.758;6.096;2023-07-29T06:41:48;18.40;99.90
43043;DHT22;28667;50.758;6.096;2023-07-29T06:44:17;18.40;99.90
43043;DHT22;28667;50.758;6.096;2023-07-29T06:46:43;18.40;99.90
43043;DHT22;28667;50.758;6.096;2023-07-29T06:49:08;18.40;99.90
43043;DHT22;28667;50.758;6.096;2023-07-29T06:51:34;18.30;99.90
43043;DHT22;28667;50.758;6.096;2023-07-29T06:54:04;18.30;99.90
43043;DHT22;28667;50.758;6.096;2023-07-29T06:56:29;18.20;99.90
43043;DHT22;28667;50.758;6.096;2023-07-29T06:58:55;18.30;99.90
43043;DHT22;28667;50.758;6.096;2023-07-29T07:01:21;18.20;99.90
43043;DHT22;28667;50.758;6.096;2023-07-29T07:03:47;18.20;99.90
43043;DHT22;28667;50.758;6.096;2023-07-29T07:06:13;18.20;99.90
43043;DHT22;28667;50.758;6.096;2023-07-29T07:08:38;18.10;99.90
43043;DHT22;28667;50.758;6.096;2023-07-29T07:11:04;18.10;99.90
43043;DHT22;28667;50.758;6.096;2023-07-29T07:13:30;18.10;99.90
43043;DHT22;28667;50.758;6.096;2023-07-29T07:15:56;18.10;99.90
43043;DHT22;28667;50.758;6.096;2023-07-29T07:18:22;18.10;99.90
43043;DHT22;28667;50.758;6.096;2023-07-29T07:20:49;18.10;99.90
43043;DHT22;28667;50.758;6.096;2023-07-29T07:23:15;18.20;99.90
43043;DHT22;28667;50.758;6.096;2023-07-29T07:25:41;18.40;99.90
43043;DHT22;28667;50.758;6.096;2023-07-29T07:28:10;18.60;99.90
43043;DHT22;28667;50.758;6.096;2023-07-29T07:30:40;18.80;99.90
43043;DHT22;28667;50.758;6.096;2023-07-29T07:33:07;19.00;99.90
43043;DHT22;28667;50.758;6.096;2023-07-29T07:35:32;19.20;99.90
43043;DHT22;28667;50.758;6.096;2023-07-29T07:37:58;19.30;99.90
43043;DHT22;28667;50.758;6.096;2023-07-29T07:40:27;19.40;99.90
43043;DHT22;28667;50.758;6.096;2023-07-29T07:42:53;19.40;99.90
43043;DHT22;28667;50.758;6.096;2023-07-29T07:45:19;19.50;99.90
43043;DHT22;28667;50.758;6.096;2023-07-29T07:47:45;19.50;99.90
43043;DHT22;28667;50.758;6.096;2023-07-29T07:50:11;19.50;99.90
43043;DHT22;28667;50.758;6.096;2023-07-29T07:52:37;19.70;99.90
43043;DHT22;28667;50.758;6.096;2023-07-29T07:55:03;19.70;99.90
43043;DHT22;28667;50.758;6.096;2023-07-29T07:57:29;19.80;99.90
43043;DHT22;28667;50.758;6.096;2023-07-29T07:59:54;19.90;99.90
43043;DHT22;28667;50.758;6.096;2023-07-29T08:02:20;20.10;99.90
43043;DHT22;28667;50.758;6.096;2023-07-29T08:04:46;20.20;99.90
43043;DHT22;28667;50.758;6.096;2023-07-29T08:07:11;20.30;99.90
43043;DHT22;28667;50.758;6.096;2023-07-29T08:09:39;20.40;99.90
43043;DHT22;28667;50.758;6.096;2023-07-29T08:12:04;20.50;99.90
43043;DHT22;28667;50.758;6.096;2023-07-29T08:14:30;20.40;99.90
43043;DHT22;28667;50.758;6.096;2023-07-29T08:16:56;20.40;99.90
43043;DHT22;28667;50.758;6.096;2023-07-29T08:19:22;20.40;99.90
43043;DHT22;28667;50.758;6.096;2023-07-29T08:21:48;20.50;99.90
43043;DHT22;28667;50.758;6.096;2023-07-29T08:24:13;20.50;99.90
43043;DHT22;28667;50.758;6.096;2023-07-29T08:26:39;20.60;99.90
43043;DHT22;28667;50.758;6.096;2023-07-29T08:29:05;20.70;99.90
43043;DHT22;28667;50.758;6.096;2023-07-29T08:31:31;20.70;99.90
43043;DHT22;28667;50.758;6.096;2023-07-29T08:33:59;20.70;99.90
43043;DHT22;28667;50.758;6.096;2023-07-29T08:36:26;20.70;99.90
43043;DHT22;28667;50.758;6.096;2023-07-29T08:38:51;20.70;99.90
43043;DHT22;28667;50.758;6.096;2023-07-29T08:41:25;20.80;99.90
43043;DHT22;28667;50.758;6.096;2023-07-29T08:46:25;21.00;99.90
43043;DHT22;28667;50.758;6.096;2023-07-29T08:48:51;21.10;99.90
43043;DHT22;28667;50.758;6.096;2023-07-29T08:51:18;21.20;99.90
43043;DHT22;28667;50.758;6.096;2023-07-29T08:53:45;21.20;99.90
43043;DHT22;28667;50.758;6.096;2023-07-29T08:56:12;21.30;99.90
43043;DHT22;28667;50.758;6.096;2023-07-29T08:58:37;21.40;99.90
43043;DHT22;28667;50.758;6.096;2023-07-29T09:01:05;21.40;99.90
43043;DHT22;28667;50.758;6.096;2023-07-29T09:03:31;21.40;99.90
43043;DHT22;28667;50.758;6.096;2023-07-29T09:05:58;21.40;99.90
43043;DHT22;28667;50.758;6.096;2023-07-29T09:08:26;21.20;99.90
43043;DHT22;28667;50.758;6.096;2023-07-29T09:10:53;21.10;99.90
43043;DHT22;28667;50.758;6.096;2023-07-29T09:13:19;20.90;99.90
43043;DHT22;28667;50.758;6.096;2023-07-29T09:15:45;20.80;99.90
43043;DHT22;28667;50.758;6.096;2023-07-29T09:18:15;20.60;99.90
43043;DHT22;28667;50.758;6.096;2023-07-29T09:20:41;20.40;99.90
43043;DHT22;28667;50.758;6.096;2023-07-29T09:23:09;20.30;99.90
43043;DHT22;28667;50.758;6.096;2023-07-29T09:25:38;20.00;99.90
43043;DHT22;28667;50.758;6.096;2023-07-29T09:28:12;19.90;99.90
43043;DHT22;28667;50.758;6.096;2023-07-29T09:30:40;19.80;99.90
43043;DHT22;28667;50.758;6.096;2023-07-29T09:33:06;19.90;99.90
43043;DHT22;28667;50.758;6.096;2023-07-29T09:35:34;20.00;99.90
43043;DHT22;28667;50.758;6.096;2023-07-29T09:38:06;20.10;99.90
43043;DHT22;28667;50.758;6.096;2023-07-29T09:40:40;20.30;99.90
43043;DHT22;28667;50.758;6.096;2023-07-29T09:43:07;20.30;99.90
43043;DHT22;28667;50.758;6.096;2023-07-29T09:45:35;20.30;99.90
43043;DHT22;28667;50.758;6.096;2023-07-29T09:48:01;20.30;99.90
43043;DHT22;28667;50.758;6.096;2023-07-29T09:50:28;20.30;99.90
43043;DHT22;28667;50.758;6.096;2023-07-29T09:52:55;20.30;99.90
43043;DHT22;28667;50.758;6.096;2023-07-29T09:55:24;20.30;99.90
43043;DHT22;28667;50.758;6.096;2023-07-29T09:57:55;20.20;99.90
43043;DHT22;28667;50.758;6.096;2023-07-29T10:00:21;20.10;99.90
43043;DHT22;28667;50.758;6.096;2023-07-29T10:02:47;20.10;99.90
43043;DHT22;28667;50.758;6.096;2023-07-29T10:05:13;20.10;99.90
43043;DHT22;28667;50.758;6.096;2023-07-29T10:07:39;20.20;99.90
43043;DHT22;28667;50.758;6.096;2023-07-29T10:10:07;20.30;99.90
43043;DHT22;28667;50.758;6.096;2023-07-29T10:12:34;20.50;99.90
43043;DHT22;28667;50.758;6.096;2023-07-29T10:15:05;20.70;99.90
43043;DHT22;28667;50.758;6.096;2023-07-29T10:17:35;20.80;99.90
43043;DHT22;28667;50.758;6.096;2023-07-29T10:20:03;21.00;99.90
43043;DHT22;28667;50.758;6.096;2023-07-29T10:22:39;21.20;99.90
43043;DHT22;28667;50.758;6.096;2023-07-29T10:25:10;21.30;99.90
43043;DHT22;28667;50.758;6.096;2023-07-29T10:27:44;21.50;99.90
43043;DHT22;28667;50.758;6.096;2023-07-29T10:30:12;21.70;99.90
43043;DHT22;28667;50.758;6.096;2023-07-29T10:32:43;21.80;99.90
43043;DHT22;28667;50.758;6.096;2023-07-29T10:35:11;21.90;99.90
43043;DHT22;28667;50.758;6.096;2023-07-29T10:37:38;22.00;99.90
43043;DHT22;28667;50.758;6.096;2023-07-29T10:40:07;22.10;99.90
43043;DHT22;28667;50.758;6.096;2023-07-29T10:42:33;22.20;99.90
43043;DHT22;28667;50.758;6.096;2023-07-29T10:45:02;22.20;99.90
43043;DHT22;28667;50.758;6.096;2023-07-29T10:47:42;22.30;99.90
43043;DHT22;28667;50.758;6.096;2023-07-29T10:50:18;22.50;99.90
43043;DHT22;28667;50.758;6.096;2023-07-29T10:52:43;22.70;99.90
43043;DHT22;28667;50.758;6.096;2023-07-29T10:55:29;22.80;99.90
43043;DHT22;28667;50.758;6.096;2023-07-29T10:58:12;22.80;99.90
43043;DHT22;28667;50.758;6.096;2023-07-29T11:00:39;22.80;99.90
43043;DHT22;28667;50.758;6.096;2023-07-29T11:03:07;22.80;99.90
43043;DHT22;28667;50.758;6.096;2023-07-29T11:08:27;22.90;99.90
43043;DHT22;28667;50.758;6.096;2023-07-29T11:11:00;22.90;99.90
43043;DHT22;28667;50.758;6.096;2023-07-29T11:13:31;22.90;99.90
43043;DHT22;28667;50.758;6.096;2023-07-29T11:15:58;23.20;99.90
43043;DHT22;28667;50.758;6.096;2023-07-29T11:18:32;23.30;99.90
43043;DHT22;28667;50.758;6.096;2023-07-29T11:20:59;23.40;99.90
43043;DHT22;28667;50.758;6.096;2023-07-29T11:23:43;23.50;99.90
43043;DHT22;28667;50.758;6.096;2023-07-29T11:26:10;23.60;99.90
43043;DHT22;28667;50.758;6.096;2023-07-29T11:28:39;23.70;99.90
43043;DHT22;28667;50.758;6.096;2023-07-29T11:31:05;23.80;99.90
43043;DHT22;28667;50.758;6.096;2023-07-29T11:33:31;23.60;99.90
43043;DHT22;28667;50.758;6.096;2023-07-29T11:35:58;23.60;99.90
43043;DHT22;28667;50.758;6.096;2023-07-29T11:38:23;23.60;99.90
43043;DHT22;28667;50.758;6.096;2023-07-29T11:41:00;23.70;99.90
43043;DHT22;28667;50.758;6.096;2023-07-29T11:43:28;23.70;99.90
43043;DHT22;28667;50.758;6.096;2023-07-29T11:45:54;23.90;99.90
43043;DHT22;28667;50.758;6.096;2023-07-29T11:48:27;24.00;99.90
43043;DHT22;28667;50.758;6.096;2023-07-29T11:50:53;24.10;99.90
43043;DHT22;28667;50.758;6.096;2023-07-29T11:53:20;24.10;99.90
43043;DHT22;28667;50.758;6.096;2023-07-29T11:55:51;24.10;99.90
43043;DHT22;28667;50.758;6.096;2023-07-29T11:58:17;24.10;99.90
43043;DHT22;28667;50.758;6.096;2023-07-29T12:00:43;24.10;99.90
43043;DHT22;28667;50.758;6.096;2023-07-29T12:03:09;24.20;99.90
43043;DHT22;28667;50.758;6.096;2023-07-29T12:05:36;24.20;99.90
43043;DHT22;28667;50.758;6.096;2023-07-29T12:08:02;24.30;99.90
43043;DHT22;28667;50.758;6.096;2023-07-29T12:10:28;24.40;99.90
43043;DHT22;28667;50.758;6.096;2023-07-29T12:12:55;24.40;99.90
43043;DHT22;28667;50.758;6.096;2023-07-29T12:15:28;24.30;99.90
43043;DHT22;28667;50.758;6.096;2023-07-29T12:17:55;24.30;99.90
43043;DHT22;28667;50.758;6.096;2023-07-29T12:20:22;24.20;99.90
43043;DHT22;28667;50.758;6.096;2023-07-29T12:22:58;24.00;99.90
43043;DHT22;28667;50.758;6.096;2023-07-29T12:25:27;23.70;99.90
43043;DHT22;28667;50.758;6.096;2023-07-29T12:27:52;23.50;99.90
43043;DHT22;28667;50.758;6.096;2023-07-29T12:30:22;23.30;99.90
43043;DHT22;28667;50.758;6.096;2023-07-29T12:32:48;23.00;99.90
43043;DHT22;28667;50.758;6.096;2023-07-29T12:35:14;22.80;99.90
43043;DHT22;28667;50.758;6.096;2023-07-29T12:37:40;22.60;99.90
43043;DHT22;28667;50.758;6.096;2023-07-29T12:40:25;22.40;99.90
43043;DHT22;28667;50.758;6.096;2023-07-29T12:42:51;22.20;99.90
43043;DHT22;28667;50.758;6.096;2023-07-29T12:45:18;22.00;99.90
43043;DHT22;28667;50.758;6.096;2023-07-29T12:47:44;21.80;99.90
43043;DHT22;28667;50.758;6.096;2023-07-29T12:50:10;21.50;99.90
43043;DHT22;28667;50.758;6.096;2023-07-29T12:52:36;21.20;99.90
43043;DHT22;28667;50.758;6.096;2023-07-29T12:55:02;20.90;99.90
43043;DHT22;28667;50.758;6.096;2023-07-29T12:57:28;20.60;99.90
43043;DHT22;28667;50.758;6.096;2023-07-29T12:59:54;20.40;99.90
43043;DHT22;28667;50.758;6.096;2023-07-29T13:02:19;20.30;99.90
43043;DHT22;28667;50.758;6.096;2023-07-29T13:04:45;20.20;99.90
43043;DHT22;28667;50.758;6.096;2023-07-29T13:07:11;20.10;99.90
43043;DHT22;28667;50.758;6.096;2023-07-29T13:09:36;20.10;99.90
43043;DHT22;28667;50.758;6.096;2023-07-29T13:12:02;20.00;99.90
43043;DHT22;28667;50.758;6.096;2023-07-29T13:14:28;20.00;99.90
43043;DHT22;28667;50.758;6.096;2023-07-29T13:16:54;19.90;99.90
43043;DHT22;28667;50.758;6.096;2023-07-29T13:19:19;19.90;99.90
43043;DHT22;28667;50.758;6.096;2023-07-29T13:21:45;19.80;99.90
43043;DHT22;28667;50.758;6.096;2023-07-29T13:24:11;19.70;99.90
43043;DHT22;28667;50.758;6.096;2023-07-29T13:26:37;19.70;99.90
43043;DHT22;28667;50.758;6.096;2023-07-29T13:29:02;19.90;99.90
43043;DHT22;28667;50.758;6.096;2023-07-29T13:31:29;20.20;99.90
43043;DHT22;28667;50.758;6.096;2023-07-29T13:33:56;20.60;99.90
43043;DHT22;28667;50.758;6.096;2023-07-29T13:36:22;20.80;99.90
43043;DHT22;28667;50.758;6.096;2023-07-29T13:38:47;21.00;99.90
43043;DHT22;28667;50.758;6.096;2023-07-29T13:41:13;21.10;99.90
43043;DHT22;28667;50.758;6.096;2023-07-29T13:43:39;21.10;99.90
43043;DHT22;28667;50.758;6.096;2023-07-29T13:46:04;21.10;99.90
43043;DHT22;28667;50.758;6.096;2023-07-29T13:48:30;21.10;99.90
43043;DHT22;28667;50.758;6.096;2023-07-29T13:50:58;21.10;99.90
43043;DHT22;28667;50.758;6.096;2023-07-29T13:53:24;21.00;99.90
43043;DHT22;28667;50.758;6.096;2023-07-29T13:55:51;20.90;99.90
43043;DHT22;28667;50.758;6.096;2023-07-29T13:58:17;20.90;99.90
43043;DHT22;28667;50.758;6.096;2023-07-29T14:00:42;20.80;99.90
43043;DHT22;28667;50.758;6.096;2023-07-29T14:03:08;20.80;99.90
43043;DHT22;28667;50.758;6.096;2023-07-29T14:05:34;20.80;99.90
43043;DHT22;28667;50.758;6.096;2023-07-29T14:08:00;20.90;99.90
43043;DHT22;28667;50.758;6.096;2023-07-29T14:10:25;21.10;99.90
43043;DHT22;28667;50.758;6.096;2023-07-29T14:12:51;21.30;99.90
43043;DHT22;28667;50.758;6.096;2023-07-29T14:15:17;21.40;99.90
43043;DHT22;28667;50.758;6.096;2023-07-29T14:17:43;21.60;99.90
43043;DHT22;28667;50.758;6.096;2023-07-29T14:20:10;21.90;99.90
43043;DHT22;28667;50.758;6.096;2023-07-29T14:22:36;22.10;99.90
43043;DHT22;28667;50.758;6.096;2023-07-29T14:25:01;22.30;99.90
43043;DHT22;28667;50.758;6.096;2023-07-29T14:27:27;22.60;99.90
43043;DHT22;28667;50.758;6.096;2023-07-29T14:29:53;23.00;99.90
43043;DHT22;28667;50.758;6.096;2023-07-29T14:32:19;23.40;99.90
43043;DHT22;28667;50.758;6.096;2023-07-29T14:34:45;23.70;99.90
43043;DHT22;28667;50.758;6.096;2023-07-29T14:37:10;23.70;99.90
43043;DHT22;28667;50.758;6.096;2023-07-29T14:39:36;23.80;99.90
43043;DHT22;28667;50.758;6.096;2023-07-29T14:42:02;23.70;99.90
43043;DHT22;28667;50.758;6.096;2023-07-29T14:44:28;23.60;99.90
43043;DHT22;28667;50.758;6.096;2023-07-29T14:46:54;23.50;99.90
43043;DHT22;28667;50.758;6.096;2023-07-29T14:49:20;23.30;99.90
43043;DHT22;28667;50.758;6.096;2023-07-29T14:51:46;23.10;99.90
43043;DHT22;28667;50.758;6.096;2023-07-29T14:54:12;23.00;99.90
43043;DHT22;28667;50.758;6.096;2023-07-29T14:56:37;22.80;99.90
43043;DHT22;28667;50.758;6.096;2023-07-29T14:59:03;22.90;99.90
43043;DHT22;28667;50.758;6.096;2023-07-29T15:01:29;22.90;99.90
43043;DHT22;28667;50.758;6.096;2023-07-29T15:03:54;22.90;99.90
43043;DHT22;28667;50.758;6.096;2023-07-29T15:06:20;22.90;99.90
43043;DHT22;28667;50.758;6.096;2023-07-29T15:08:46;22.80;99.90
43043;DHT22;28667;50.758;6.096;2023-07-29T15:11:11;22.60;99.90
43043;DHT22;28667;50.758;6.096;2023-07-29T15:13:37;22.70;99.90
43043;DHT22;28667;50.758;6.096;2023-07-29T15:16:03;22.60;99.90
43043;DHT22;28667;50.758;6.096;2023-07-29T15:18:29;22.80;99.90
43043;DHT22;28667;50.758;6.096;2023-07-29T15:20:56;23.00;99.90
43043;DHT22;28667;50.758;6.096;2023-07-29T15:23:23;23.40;99.90
43043;DHT22;28667;50.758;6.096;2023-07-29T15:25:48;23.80;99.90
43043;DHT22;28667;50.758;6.096;2023-07-29T15:28:14;24.00;99.90
43043;DHT22;28667;50.758;6.096;2023-07-29T15:30:40;23.90;99.90
43043;DHT22;28667;50.758;6.096;2023-07-29T15:33:06;24.10;99.90
43043;DHT22;28667;50.758;6.096;2023-07-29T15:35:37;24.20;99.90
43043;DHT22;28667;50.758;6.096;2023-07-29T15:38:04;24.50;99.90
43043;DHT22;28667;50.758;6.096;2023-07-29T15:40:30;24.70;99.90
43043;DHT22;28667;50.758;6.096;2023-07-29T15:42:56;24.80;99.90
43043;DHT22;28667;50.758;6.096;2023-07-29T15:45:22;25.00;99.90
43043;DHT22;28667;50.758;6.096;2023-07-29T15:47:47;25.20;99.90
43043;DHT22;28667;50.758;6.096;2023-07-29T15:50:13;25.10;99.90
43043;DHT22;28667;50.758;6.096;2023-07-29T15:52:40;25.10;99.90
43043;DHT22;28667;50.758;6.096;2023-07-29T15:55:08;25.20;99.90
43043;DHT22;28667;50.758;6.096;2023-07-29T15:57:34;25.10;99.90
43043;DHT22;28667;50.758;6.096;2023-07-29T16:00:00;25.10;99.90
43043;DHT22;28667;50.758;6.096;2023-07-29T16:02:26;25.10;99.90
43043;DHT22;28667;50.758;6.096;2023-07-29T16:04:52;24.90;99.90
43043;DHT22;28667;50.758;6.096;2023-07-29T16:07:17;24.60;99.90
43043;DHT22;28667;50.758;6.096;2023-07-29T16:09:43;24.20;99.90
43043;DHT22;28667;50.758;6.096;2023-07-29T16:12:09;24.00;99.90
43043;DHT22;28667;50.758;6.096;2023-07-29T16:14:34;23.80;99.90
43043;DHT22;28667;50.758;6.096;2023-07-29T16:17:00;23.60;99.90
43043;DHT22;28667;50.758;6.096;2023-07-29T16:19:27;23.50;99.90
43043;DHT22;28667;50.758;6.096;2023-07-29T16:21:55;23.30;99.90
43043;DHT22;28667;50.758;6.096;2023-07-29T16:24:21;23.30;99.90
43043;DHT22;28667;50.758;6.096;2023-07-29T16:26:47;23.30;99.90
43043;DHT22;28667;50.758;6.096;2023-07-29T16:29:13;23.30;99.90
43043;DHT22;28667;50.758;6.096;2023-07-29T16:31:39;23.20;99.90
43043;DHT22;28667;50.758;6.096;2023-07-29T16:34:04;23.10;99.90
43043;DHT22;28667;50.758;6.096;2023-07-29T16:36:31;23.10;99.90
43043;DHT22;28667;50.758;6.096;2023-07-29T16:38:57;23.00;99.90
43043;DHT22;28667;50.758;6.096;2023-07-29T16:41:23;23.10;99.90
43043;DHT22;28667;50.758;6.096;2023-07-29T16:43:48;23.00;99.90
43043;DHT22;28667;50.758;6.096;2023-07-29T16:46:14;23.00;99.90
43043;DHT22;28667;50.758;6.096;2023-07-29T16:48:40;22.80;99.90
43043;DHT22;28667;50.758;6.096;2023-07-29T16:51:06;22.70;99.90
43043;DHT22;28667;50.758;6.096;2023-07-29T16:53:33;22.60;99.90
43043;DHT22;28667;50.758;6.096;2023-07-29T16:55:59;22.50;99.90
43043;DHT22;28667;50.758;6.096;2023-07-29T16:58:25;22.30;99.90
43043;DHT22;28667;50.758;6.096;2023-07-29T17:00:52;22.20;99.90
43043;DHT22;28667;50.758;6.096;2023-07-29T17:03:17;22.10;99.90
43043;DHT22;28667;50.758;6.096;2023-07-29T17:05:43;21.90;99.90
43043;DHT22;28667;50.758;6.096;2023-07-29T17:08:09;21.80;99.90
43043;DHT22;28667;50.758;6.096;2023-07-29T17:10:35;21.50;99.90
43043;DHT22;28667;50.758;6.096;2023-07-29T17:13:01;21.60;99.90
43043;DHT22;28667;50.758;6.096;2023-07-29T17:15:26;21.80;99.90
43043;DHT22;28667;50.758;6.096;2023-07-29T17:17:52;22.00;99.90
43043;DHT22;28667;50.758;6.096;2023-07-29T17:20:19;22.10;99.90
43043;DHT22;28667;50.758;6.096;2023-07-29T17:22:45;22.10;99.90
43043;DHT22;28667;50.758;6.096;2023-07-29T17:25:11;22.20;99.90
43043;DHT22;28667;50.758;6.096;2023-07-29T17:27:37;22.30;99.90
43043;DHT22;28667;50.758;6.096;2023-07-29T17:30:03;22.40;99.90
43043;DHT22;28667;50.758;6.096;2023-07-29T17:32:29;22.30;99.90
43043;DHT22;28667;50.758;6.096;2023-07-29T17:34:54;22.20;99.90
43043;DHT22;28667;50.758;6.096;2023-07-29T17:37:20;22.20;99.90
43043;DHT22;28667;50.758;6.096;2023-07-29T17:39:46;22.30;99.90
43043;DHT22;28667;50.758;6.096;2023-07-29T17:42:11;22.30;99.90
43043;DHT22;28667;50.758;6.096;2023-07-29T17:44:37;22.40;99.90
43043;DHT22;28667;50.758;6.096;2023-07-29T17:47:04;22.40;99.90
43043;DHT22;28667;50.758;6.096;2023-07-29T17:49:30;22.50;99.90
43043;DHT22;28667;50.758;6.096;2023-07-29T17:51:55;22.50;99.90
43043;DHT22;28667;50.758;6.096;2023-07-29T17:54:21;22.50;99.90
43043;DHT22;28667;50.758;6.096;2023-07-29T17:56:47;22.40;99.90
43043;DHT22;28667;50.758;6.096;2023-07-29T17:59:13;22.30;99.90
43043;DHT22;28667;50.758;6.096;2023-07-29T18:01:38;22.30;99.90
43043;DHT22;28667;50.758;6.096;2023-07-29T18:04:04;22.30;99.90
43043;DHT22;28667;50.758;6.096;2023-07-29T18:06:30;22.20;99.90
43043;DHT22;28667;50.758;6.096;2023-07-29T18:08:56;22.20;99.90
43043;DHT22;28667;50.758;6.096;2023-07-29T18:11:21;22.10;99.90
43043;DHT22;28667;50.758;6.096;2023-07-29T18:13:48;22.00;99.90
43043;DHT22;28667;50.758;6.096;2023-07-29T18:16:13;22.00;99.90
43043;DHT22;28667;50.758;6.096;2023-07-29T18:18:45;21.90;99.90
43043;DHT22;28667;50.758;6.096;2023-07-29T18:21:12;21.90;99.90
43043;DHT22;28667;50.758;6.096;2023-07-29T18:23:38;21.80;99.90
43043;DHT22;28667;50.758;6.096;2023-07-29T18:26:04;21.70;99.90
43043;DHT22;28667;50.758;6.096;2023-07-29T18:28:29;21.50;99.90
43043;DHT22;28667;50.758;6.096;2023-07-29T18:30:55;21.40;99.90
43043;DHT22;28667;50.758;6.096;2023-07-29T18:33:21;21.30;99.90
43043;DHT22;28667;50.758;6.096;2023-07-29T18:35:47;21.20;99.90
43043;DHT22;28667;50.758;6.096;2023-07-29T18:38:12;21.10;99.90
43043;DHT22;28667;50.758;6.096;2023-07-29T18:40:39;20.90;99.90
43043;DHT22;28667;50.758;6.096;2023-07-29T18:43:07;20.80;99.90
43043;DHT22;28667;50.758;6.096;2023-07-29T18:45:35;20.80;99.90
43043;DHT22;28667;50.758;6.096;2023-07-29T18:48:00;20.70;99.90
43043;DHT22;28667;50.758;6.096;2023-07-29T18:50:26;20.70;99.90
43043;DHT22;28667;50.758;6.096;2023-07-29T18:52:52;20.60;99.90
43043;DHT22;28667;50.758;6.096;2023-07-29T18:55:19;20.50;99.90
43043;DHT22;28667;50.758;6.096;2023-07-29T18:57:45;20.40;99.90
43043;DHT22;28667;50.758;6.096;2023-07-29T19:00:11;20.30;99.90
43043;DHT22;28667;50.758;6.096;2023-07-29T19:02:37;20.20;99.90
43043;DHT22;28667;50.758;6.096;2023-07-29T19:05:04;20.20;99.90
43043;DHT22;28667;50.758;6.096;2023-07-29T19:07:30;20.00;99.90
43043;DHT22;28667;50.758;6.096;2023-07-29T19:10:00;20.00;99.90
43043;DHT22;28667;50.758;6.096;2023-07-29T19:12:26;19.90;99.90
43043;DHT22;28667;50.758;6.096;2023-07-29T19:14:53;19.70;99.90
43043;DHT22;28667;50.758;6.096;2023-07-29T19:17:19;19.70;99.90
43043;DHT22;28667;50.758;6.096;2023-07-29T19:19:45;19.50;99.90
43043;DHT22;28667;50.758;6.096;2023-07-29T19:22:11;19.50;99.90
43043;DHT22;28667;50.758;6.096;2023-07-29T19:24:36;19.40;99.90
43043;DHT22;28667;50.758;6.096;2023-07-29T19:27:02;19.40;99.90
43043;DHT22;28667;50.758;6.096;2023-07-29T19:29:30;19.30;99.90
43043;DHT22;28667;50.758;6.096;2023-07-29T19:31:56;19.30;99.90
43043;DHT22;28667;50.758;6.096;2023-07-29T19:34:22;19.20;99.90
43043;DHT22;28667;50.758;6.096;2023-07-29T19:36:51;19.10;99.90
43043;DHT22;28667;50.758;6.096;2023-07-29T19:39:17;19.10;99.90
43043;DHT22;28667;50.758;6.096;2023-07-29T19:41:43;19.00;99.90
43043;DHT22;28667;50.758;6.096;2023-07-29T19:44:09;18.90;99.90
43043;DHT22;28667;50.758;6.096;2023-07-29T19:46:34;18.90;99.90
43043;DHT22;28667;50.758;6.096;2023-07-29T19:49:00;18.90;99.90
43043;DHT22;28667;50.758;6.096;2023-07-29T19:51:26;18.80;99.90
43043;DHT22;28667;50.758;6.096;2023-07-29T19:53:52;18.80;99.90
43043;DHT22;28667;50.758;6.096;2023-07-29T19:56:18;18.70;99.90
43043;DHT22;28667;50.758;6.096;2023-07-29T19:58:44;18.70;99.90
43043;DHT22;28667;50.758;6.096;2023-07-29T20:01:10;18.60;99.90
43043;DHT22;28667;50.758;6.096;2023-07-29T20:03:37;18.50;99.90
43043;DHT22;28667;50.758;6.096;2023-07-29T20:06:04;18.50;99.90
43043;DHT22;28667;50.758;6.096;2023-07-29T20:08:30;18.40;99.90
43043;DHT22;28667;50.758;6.096;2023-07-29T20:10:56;18.40;99.90
43043;DHT22;28667;50.758;6.096;2023-07-29T20:13:22;18.40;99.90
43043;DHT22;28667;50.758;6.096;2023-07-29T20:15:51;18.30;99.90
43043;DHT22;28667;50.758;6.096;2023-07-29T20:18:17;18.30;99.90
43043;DHT22;28667;50.758;6.096;2023-07-29T20:20:42;18.20;99.90
43043;DHT22;28667;50.758;6.096;2023-07-29T20:23:08;18.20;99.90
43043;DHT22;28667;50.758;6.096;2023-07-29T20:25:34;18.10;99.90
43043;DHT22;28667;50.758;6.096;2023-07-29T20:28:00;18.10;99.90
43043;DHT22;28667;50.758;6.096;2023-07-29T20:30:26;18.00;99.90
43043;DHT22;28667;50.758;6.096;2023-07-29T20:32:56;18.00;99.90